Aérodrome :
LOGIN :

S'inscrire | Disclaimer

   EN    FR    IT 

 










Légende :    VFR   VFR Marginal   IFR   IFR Intensif   IFR Très Intensif
Visi : 
Plafond : 
>= 8 km
>= 3000ft
5 à 8 km
1000 à 3000 ft
1500m à 5 km
500 à 1000 ft
800 à 1500m
200 à 500 ft
< 800m
< 200 ft
Symboles :   Orages  Brouillard  Fortes neiges  Fortes précipitations  Vent > 20 kt
SIGMETs :   Divers  Orages  Givrage  Turbulence  Onde Orograph.  Cendres Volcan.






- Altitude de l'aérodrome : 20 ft


EBFN - Koksijde

DERNIER METAR :
  • 022155Z AUTO 34003KT 9999 FEW230/// 13/12 Q1013 BLU

METARs EXPIRÉS :
  • 022125Z 01004KT 9999 SCT230 14/12 Q1013 BLU BLU
  • 022055Z 01003KT 9999 SCT230 14/12 Q1013 BLU BLU
  • 022025Z VRB02KT 9999 BKN230 14/12 Q1014 BLU BLU
  • 021955Z 36004KT 9999 BKN230 15/13 Q1014 BLU BLU
  • 021925Z 36004KT 9999 BKN230 15/13 Q1014 BLU BLU

TAF TAF EBFN
Valide du 02 à 19h jusqu'au 03 à 07h UTC


021541Z 0219/0307 35006KT 9999 BKN240
TEMPO 0222/0303 VRB02KT
TEMPO 0300/0305 6000
PROB40
TEMPO 0300/0305 3500 BR



MET'MAP, la Météo Aéronautique d'un coup d'oeil ! - Copyright ORBIFLY Décembre 2007 - Disclaimer

ORBIFLY MET'MAP TEAM :

Programmation & Développement : Alexandra Zaïnal
Sur une idée originale de : Baudouin d'Aumeries
Assistance à la programmation : Marc-Olivier Méhu
Soutien technique & logistique : Manuel Goepfert

Contact : metmap@orbifly.com




SOURCES & CREDITS :

   NOAA